Time;durP1;ratioP1;P1;durP2;ratioP2;P2;SDS_P1;SDS_P2;PMS_P1;PMS_P2;Temp;Humidity;BMP_temperature;BMP_pressure;BME280_temperature;BME280_humidity;BME280_pressure;Samples;Min_cycle;Max_cycle;Signal;HPM_P1;HPM_P2
2022/05/02 00:00:55;;;;;;;14.63;11.70;;;9.20;99.90;;;;;;5051511;28;20408;-72
2022/05/02 00:03:21;;;;;;;15.93;10.95;;;9.20;99.90;;;;;;5052513;28;20017;-71
2022/05/02 00:05:47;;;;;;;15.90;12.40;;;9.20;99.90;;;;;;5051424;28;20037;-71
2022/05/02 00:08:13;;;;;;;15.77;11.55;;;9.20;99.90;;;;;;5052284;28;20029;-71
2022/05/02 00:10:39;;;;;;;15.85;11.35;;;9.20;99.90;;;;;;5052290;28;20024;-71
2022/05/02 00:13:06;;;;;;;13.43;11.57;;;9.10;99.90;;;;;;5051545;28;20462;-72
2022/05/02 00:15:32;;;;;;;13.40;11.32;;;9.10;99.90;;;;;;5052046;28;20043;-72
2022/05/02 00:17:58;;;;;;;13.43;10.88;;;9.10;99.90;;;;;;5051166;28;20449;-72
2022/05/02 00:20:33;;;;;;;15.23;11.40;;;9.00;99.90;;;;;;5052248;28;20035;-72
2022/05/02 00:23:04;;;;;;;13.43;11.65;;;8.90;99.90;;;;;;5051279;28;20112;-72
2022/05/02 00:25:31;;;;;;;13.23;10.80;;;8.80;99.90;;;;;;5052291;28;20067;-71
2022/05/02 00:27:58;;;;;;;14.27;11.40;;;8.80;99.90;;;;;;5051284;28;20367;-71
2022/05/02 00:30:24;;;;;;;18.52;12.30;;;8.80;99.90;;;;;;5052043;28;20112;-71
2022/05/02 00:32:49;;;;;;;15.80;12.98;;;8.70;99.90;;;;;;5050986;28;20437;-71
2022/05/02 00:35:15;;;;;;;13.38;11.73;;;8.70;99.90;;;;;;5051958;28;20052;-71
2022/05/02 00:37:42;;;;;;;13.30;11.90;;;8.70;99.90;;;;;;5051720;28;20055;-71
2022/05/02 00:40:10;;;;;;;17.17;12.63;;;8.70;99.90;;;;;;5051882;28;20083;-71
2022/05/02 00:42:37;;;;;;;14.70;12.68;;;8.60;99.90;;;;;;5040703;28;20057;-71
2022/05/02 00:45:07;;;;;;;14.63;12.20;;;8.60;99.90;;;;;;5046162;28;20037;-71
2022/05/02 00:47:34;;;;;;;18.02;13.98;;;8.60;99.90;;;;;;5051015;28;20498;-71
2022/05/02 00:50:00;;;;;;;17.10;13.18;;;8.60;99.90;;;;;;5050800;28;20028;-71
2022/05/02 00:52:26;;;;;;;15.23;11.85;;;8.60;99.90;;;;;;5051796;28;20033;-71
2022/05/02 00:54:52;;;;;;;15.63;12.15;;;8.60;99.90;;;;;;5050873;28;20091;-71
2022/05/02 00:57:17;;;;;;;14.27;11.90;;;8.60;99.90;;;;;;5050732;28;20037;-71
2022/05/02 00:59:43;;;;;;;17.80;12.10;;;8.60;99.90;;;;;;5055378;28;20037;-71
2022/05/02 01:02:12;;;;;;;16.05;13.38;;;8.50;99.90;;;;;;5055240;28;20025;-71
2022/05/02 01:04:38;;;;;;;14.15;12.45;;;8.50;99.90;;;;;;5055630;28;20036;-71
2022/05/02 01:07:11;;;;;;;17.25;13.40;;;8.60;99.90;;;;;;5055014;28;20033;-71
2022/05/02 01:09:57;;;;;;;15.05;12.90;;;8.60;99.90;;;;;;5055336;28;20072;-71
2022/05/02 01:12:24;;;;;;;16.92;13.20;;;8.60;99.90;;;;;;5055925;28;20091;-71
2022/05/02 01:14:56;;;;;;;15.73;12.60;;;8.60;99.90;;;;;;5054615;28;20051;-71
2022/05/02 01:17:22;;;;;;;14.25;12.48;;;8.60;99.90;;;;;;5055095;28;20037;-71
2022/05/02 01:19:49;;;;;;;15.98;13.20;;;8.60;99.90;;;;;;5054824;28;20108;-71
2022/05/02 01:22:15;;;;;;;18.67;13.95;;;8.60;99.90;;;;;;5055766;28;20498;-71
2022/05/02 01:24:46;;;;;;;13.75;12.27;;;8.70;99.90;;;;;;5054885;28;20146;-71
2022/05/02 01:27:13;;;;;;;14.52;12.55;;;8.70;99.90;;;;;;5055155;28;20025;-71
2022/05/02 01:29:42;;;;;;;18.17;14.23;;;8.70;99.90;;;;;;5054925;28;20029;-71
2022/05/02 01:32:09;;;;;;;18.52;14.25;;;8.70;99.90;;;;;;5054486;28;20202;-71
2022/05/02 01:34:42;;;;;;;17.27;13.15;;;8.80;99.90;;;;;;5054977;28;20044;-71
2022/05/02 01:37:09;;;;;;;16.15;13.27;;;8.80;99.90;;;;;;5054166;28;20053;-71
2022/05/02 01:39:35;;;;;;;16.05;13.02;;;8.90;99.90;;;;;;5055333;28;20029;-71
2022/05/02 01:42:08;;;;;;;16.42;13.50;;;8.90;99.90;;;;;;5054059;28;20044;-71
2022/05/02 01:44:35;;;;;;;17.40;13.48;;;8.90;99.90;;;;;;5055104;28;20033;-71
2022/05/02 01:47:01;;;;;;;16.33;12.95;;;8.90;99.90;;;;;;5054370;28;20025;-71
2022/05/02 01:49:26;;;;;;;14.10;11.93;;;8.90;99.90;;;;;;5055235;28;20486;-71
2022/05/02 01:51:53;;;;;;;14.10;11.93;;;8.90;99.90;;;;;;5054084;28;20032;-71
2022/05/02 01:54:18;;;;;;;14.02;11.73;;;8.90;99.90;;;;;;5054858;28;20029;-71
2022/05/02 01:56:44;;;;;;;15.32;12.70;;;8.90;99.90;;;;;;5054674;28;20032;-71
2022/05/02 01:59:11;;;;;;;14.60;12.15;;;8.80;99.90;;;;;;5047793;28;20033;-71
2022/05/02 02:01:37;;;;;;;14.73;12.80;;;8.90;99.90;;;;;;5042924;28;20021;-71
2022/05/02 02:05:48;;;;;;;14.52;12.48;;;8.80;99.90;;;;;;5044353;28;20167;-72
2022/05/02 02:06:51;;;;;;;17.65;13.88;;;8.80;99.90;;;;;;5044373;28;20435;-71
2022/05/02 02:09:16;;;;;;;16.77;13.75;;;8.80;99.90;;;;;;5042729;28;20371;-71
2022/05/02 02:11:43;;;;;;;14.75;11.90;;;8.70;99.90;;;;;;5043891;28;20028;-72
2022/05/02 02:14:09;;;;;;;15.23;13.20;;;8.70;99.90;;;;;;5044344;28;20033;-71
2022/05/02 02:16:34;;;;;;;18.42;13.63;;;8.60;99.90;;;;;;5042229;28;20028;-71
2022/05/02 02:19:01;;;;;;;18.27;15.32;;;8.60;99.90;;;;;;5043070;28;20466;-71
2022/05/02 02:21:26;;;;;;;19.15;15.63;;;8.60;99.90;;;;;;5043196;28;20022;-71
2022/05/02 02:23:53;;;;;;;18.83;14.63;;;8.50;99.90;;;;;;5042735;28;20025;-72
2022/05/02 02:26:18;;;;;;;16.17;13.63;;;8.50;99.90;;;;;;5043776;28;20436;-71
2022/05/02 02:28:44;;;;;;;13.98;12.13;;;8.50;99.90;;;;;;5043640;28;20071;-71
2022/05/02 02:31:10;;;;;;;15.82;12.70;;;8.50;99.90;;;;;;5041228;28;20219;-71
2022/05/02 02:33:37;;;;;;;16.02;13.02;;;8.50;99.90;;;;;;5043903;28;20034;-71
2022/05/02 02:36:03;;;;;;;17.92;13.90;;;8.50;99.90;;;;;;5041922;28;20025;-71
2022/05/02 02:38:29;;;;;;;18.05;14.70;;;8.50;99.90;;;;;;5043481;28;20037;-71
2022/05/02 02:40:55;;;;;;;16.50;14.70;;;8.50;99.90;;;;;;5037787;28;20030;-72
2022/05/02 02:43:20;;;;;;;18.40;14.30;;;8.50;99.90;;;;;;5038336;28;20064;-72
2022/05/02 02:45:46;;;;;;;16.45;13.45;;;8.50;99.90;;;;;;5054112;28;20458;-72
2022/05/02 02:48:12;;;;;;;13.55;12.15;;;8.50;99.90;;;;;;5052736;28;20033;-72
2022/05/02 02:50:37;;;;;;;14.15;12.23;;;8.60;99.90;;;;;;5054049;28;20029;-72
2022/05/02 02:53:03;;;;;;;14.45;12.25;;;8.60;99.90;;;;;;5052796;28;20029;-72
2022/05/02 02:55:29;;;;;;;16.60;13.50;;;8.60;99.90;;;;;;5053942;28;20025;-72
2022/05/02 02:57:55;;;;;;;15.52;13.93;;;8.60;99.90;;;;;;5053098;28;20029;-72
2022/05/02 03:00:21;;;;;;;17.63;14.40;;;8.70;99.90;;;;;;5053415;28;20437;-72
2022/05/02 03:02:48;;;;;;;16.40;14.05;;;8.70;99.90;;;;;;5053623;28;20120;-72
2022/05/02 03:07:59;;;;;;;16.60;14.23;;;8.70;99.90;;;;;;5042328;28;20064;-72
2022/05/02 03:10:27;;;;;;;15.20;13.25;;;8.70;99.90;;;;;;5040957;28;20059;-71
2022/05/02 03:12:54;;;;;;;17.08;13.85;;;8.70;99.90;;;;;;5044811;28;20033;-72
2022/05/02 03:15:20;;;;;;;21.35;15.15;;;8.80;99.90;;;;;;5041440;28;20021;-72
2022/05/02 03:17:46;;;;;;;19.42;14.63;;;8.80;99.90;;;;;;5043331;28;20025;-71
2022/05/02 03:20:12;;;;;;;18.70;15.43;;;8.80;99.90;;;;;;5040807;28;20083;-71
2022/05/02 03:22:38;;;;;;;20.25;14.70;;;8.80;99.90;;;;;;5041685;28;20025;-72
2022/05/02 03:25:04;;;;;;;16.52;14.57;;;8.80;99.90;;;;;;5042878;28;20382;-72
2022/05/02 03:27:30;;;;;;;16.73;14.85;;;8.80;99.90;;;;;;5041190;28;20124;-73
2022/05/02 03:29:56;;;;;;;17.25;13.98;;;8.80;99.90;;;;;;5040888;28;20021;-72
2022/05/02 03:32:22;;;;;;;15.85;13.77;;;8.80;99.90;;;;;;5044688;28;20087;-72
2022/05/02 03:34:48;;;;;;;19.83;16.58;;;8.80;99.90;;;;;;5041081;28;20026;-72
2022/05/02 03:37:14;;;;;;;20.33;16.65;;;8.80;99.90;;;;;;5041608;28;20037;-70
2022/05/02 03:39:39;;;;;;;21.42;16.83;;;8.90;99.90;;;;;;5040087;28;20419;-71
2022/05/02 03:42:06;;;;;;;20.40;15.70;;;8.90;99.90;;;;;;5041012;28;20021;-72
2022/05/02 03:44:31;;;;;;;20.30;15.73;;;8.90;99.90;;;;;;5044473;28;20040;-70
2022/05/02 03:46:57;;;;;;;20.48;16.75;;;9.00;99.90;;;;;;5042090;28;20045;-71
2022/05/02 03:49:22;;;;;;;17.80;15.43;;;9.00;99.90;;;;;;5040333;28;20028;-71
2022/05/02 03:51:48;;;;;;;21.67;16.73;;;9.00;99.90;;;;;;5042685;28;20072;-71
2022/05/02 03:54:14;;;;;;;19.52;17.23;;;9.00;99.90;;;;;;5046032;28;20040;-71
2022/05/02 03:56:39;;;;;;;19.23;16.35;;;9.00;99.90;;;;;;5052020;28;20486;-71
2022/05/02 03:59:05;;;;;;;18.67;16.27;;;9.00;99.90;;;;;;5051880;28;20036;-71
2022/05/02 04:01:36;;;;;;;19.83;16.75;;;9.00;99.90;;;;;;5052646;28;20033;-71
2022/05/02 04:04:02;;;;;;;23.13;17.92;;;9.00;99.90;;;;;;5051686;28;20041;-72
2022/05/02 04:06:27;;;;;;;23.27;18.23;;;9.00;99.90;;;;;;5052454;28;20109;-71
2022/05/02 04:08:53;;;;;;;20.25;15.65;;;9.00;99.90;;;;;;5051344;28;20116;-73
2022/05/02 04:11:18;;;;;;;23.60;17.73;;;9.00;99.90;;;;;;5052352;28;20029;-71
2022/05/02 04:13:44;;;;;;;21.13;17.42;;;9.00;99.90;;;;;;5052424;28;20020;-71
2022/05/02 04:16:10;;;;;;;19.85;17.20;;;9.10;99.90;;;;;;5051541;28;20500;-71
2022/05/02 04:18:35;;;;;;;18.30;16.33;;;9.10;99.90;;;;;;5052363;28;20033;-71
2022/05/02 04:21:01;;;;;;;19.30;16.30;;;9.10;99.90;;;;;;5051378;28;20454;-70
2022/05/02 04:23:26;;;;;;;17.45;15.55;;;9.10;99.90;;;;;;5052216;28;20041;-70
2022/05/02 04:25:52;;;;;;;19.70;16.25;;;9.10;99.90;;;;;;5051645;28;20024;-71
2022/05/02 04:28:18;;;;;;;19.20;16.00;;;9.20;99.90;;;;;;5052539;28;20041;-70
2022/05/02 04:30:43;;;;;;;19.85;15.90;;;9.20;99.90;;;;;;5052201;28;20483;-71
2022/05/02 04:33:09;;;;;;;20.98;16.75;;;9.30;99.90;;;;;;5050962;28;20033;-71
2022/05/02 04:35:35;;;;;;;18.33;16.23;;;9.30;99.90;;;;;;5052046;28;20162;-71
2022/05/02 04:38:01;;;;;;;19.88;16.45;;;9.40;99.90;;;;;;5050905;28;20040;-72
2022/05/02 04:40:26;;;;;;;21.45;15.82;;;9.40;99.90;;;;;;5051847;28;20045;-71
2022/05/02 04:42:52;;;;;;;18.45;16.08;;;9.50;99.90;;;;;;5051181;28;20031;-71
2022/05/02 04:45:18;;;;;;;20.05;15.98;;;9.50;99.90;;;;;;5050402;28;20021;-71
2022/05/02 04:47:43;;;;;;;19.23;15.73;;;9.60;99.90;;;;;;5051931;28;20490;-71
2022/05/02 04:50:09;;;;;;;19.15;15.60;;;9.60;99.90;;;;;;5051211;28;20025;-71
2022/05/02 04:52:35;;;;;;;19.20;16.30;;;9.60;99.90;;;;;;5051449;28;20033;-72
2022/05/02 04:55:01;;;;;;;19.80;15.35;;;9.60;99.90;;;;;;5051291;28;20032;-72
2022/05/02 04:57:26;;;;;;;17.17;14.80;;;9.60;99.90;;;;;;5051911;28;20025;-72
2022/05/02 04:59:52;;;;;;;16.77;13.90;;;9.70;99.90;;;;;;5046658;28;20029;-72
2022/05/02 05:02:18;;;;;;;16.08;14.27;;;9.70;99.90;;;;;;5032840;28;20026;-72
2022/05/02 05:04:43;;;;;;;18.23;14.93;;;9.70;99.90;;;;;;5051776;28;20482;-71
2022/05/02 05:07:09;;;;;;;17.90;14.40;;;9.80;99.90;;;;;;5050604;28;20025;-70
2022/05/02 05:09:36;;;;;;;17.95;14.20;;;9.80;99.90;;;;;;5045492;28;20057;-72
2022/05/02 05:12:13;;;;;;;16.30;14.52;;;9.80;99.90;;;;;;5039695;28;20028;-72
2022/05/02 05:17:35;;;;;;;19.20;14.70;;;9.90;99.90;;;;;;5039926;28;20045;-72
2022/05/02 05:20:21;;;;;;;19.65;16.13;;;10.00;99.90;;;;;;5030830;28;20392;-72
2022/05/02 05:23:13;;;;;;;19.42;16.38;;;10.00;99.90;;;;;;5039886;28;20024;-72
2022/05/02 05:25:39;;;;;;;25.05;17.63;;;10.10;99.90;;;;;;5044144;28;20033;-71
2022/05/02 05:28:23;;;;;;;22.40;18.05;;;10.20;99.90;;;;;;5044122;28;20032;-71
2022/05/02 05:30:56;;;;;;;28.38;19.35;;;10.20;99.90;;;;;;5047758;28;20514;-72
2022/05/02 05:34:00;;;;;;;24.55;19.73;;;10.40;99.90;;;;;;5037053;28;20040;-71
2022/05/02 05:36:44;;;;;;;28.65;19.98;;;10.40;99.90;;;;;;5039024;28;20455;-72
2022/05/02 05:39:35;;;;;;;25.90;19.60;;;10.40;99.90;;;;;;5044426;28;20044;-71
2022/05/02 05:42:29;;;;;;;26.38;19.63;;;10.50;99.90;;;;;;5036900;28;20025;-72
2022/05/02 05:45:10;;;;;;;25.48;19.02;;;10.50;99.90;;;;;;5043693;28;20017;-71
2022/05/02 05:47:48;;;;;;;24.42;18.45;;;10.60;99.90;;;;;;5049017;28;20094;-71
2022/05/02 05:50:33;;;;;;;22.15;18.95;;;10.60;99.90;;;;;;5053559;28;20057;-70
2022/05/02 05:53:29;;;;;;;23.13;18.23;;;10.70;99.90;;;;;;5050956;28;20124;-70
2022/05/02 05:56:00;;;;;;;23.13;19.65;;;10.70;99.90;;;;;;5053648;28;20102;-84
2022/05/02 05:58:37;;;;;;;23.75;20.48;;;10.80;99.90;;;;;;5053037;28;20041;-75
2022/05/02 06:01:13;;;;;;;23.10;18.17;;;10.90;99.90;;;;;;5057526;28;20037;-71
2022/05/02 06:04:06;;;;;;;28.90;20.33;;;10.90;99.90;;;;;;5054637;28;20385;-71
2022/05/02 06:06:32;;;;;;;21.98;17.60;;;11.00;99.90;;;;;;5039774;28;20029;-74
2022/05/02 06:08:59;;;;;;;23.98;18.52;;;11.10;99.90;;;;;;5050048;28;20057;-70
2022/05/02 06:11:26;;;;;;;23.23;18.70;;;11.20;99.90;;;;;;5034552;28;20025;-70
2022/05/02 06:13:54;;;;;;;22.33;17.63;;;11.30;99.90;;;;;;5050985;28;20039;-69
2022/05/02 06:19:16;;;;;;;20.88;17.63;;;11.40;99.90;;;;;;5053433;28;20551;-69
2022/05/02 06:21:45;;;;;;;18.60;16.55;;;11.40;99.90;;;;;;5052996;28;20029;-72
2022/05/02 06:24:13;;;;;;;18.48;16.42;;;11.50;99.90;;;;;;5055555;28;20128;-74
2022/05/02 06:26:40;;;;;;;20.65;17.05;;;11.60;99.90;;;;;;5055981;28;20029;-74
2022/05/02 06:29:08;;;;;;;21.90;18.67;;;11.70;99.90;;;;;;5051633;28;20046;-73
2022/05/02 06:31:40;;;;;;;20.85;16.58;;;11.90;99.90;;;;;;5045340;28;20026;-73
2022/05/02 06:34:06;;;;;;;22.23;17.33;;;12.00;99.90;;;;;;5043318;28;20104;-72
2022/05/02 06:36:57;;;;;;;21.00;17.42;;;12.20;99.90;;;;;;5042803;28;20029;-73
2022/05/02 06:39:28;;;;;;;;;;;12.30;99.90;;;;;;5044254;28;20041;-73
2022/05/02 06:41:54;;;;;;;20.42;16.98;;;12.40;99.90;;;;;;5043011;28;19909;-72
2022/05/02 06:44:50;;;;;;;20.65;18.20;;;12.50;99.90;;;;;;5041811;28;20154;-68
2022/05/02 06:47:53;;;;;;;20.40;17.15;;;12.60;99.90;;;;;;5040497;28;20437;-70
2022/05/02 06:50:23;;;;;;;24.58;17.75;;;12.70;99.90;;;;;;5043658;28;20103;-70
2022/05/02 06:53:07;;;;;;;22.85;17.85;;;12.80;99.90;;;;;;5051750;28;20021;-70
2022/05/02 06:55:56;;;;;;;21.15;17.08;;;12.80;99.90;;;;;;5050936;28;20033;-70
2022/05/02 06:58:48;;;;;;;22.90;17.52;;;12.80;99.90;;;;;;5047250;28;20025;-70
2022/05/02 07:01:51;;;;;;;26.83;19.08;;;12.90;99.90;;;;;;5051214;28;20025;-70
2022/05/02 07:04:33;;;;;;;23.13;17.95;;;13.00;99.90;;;;;;5050726;28;20061;-70
2022/05/02 07:07:18;;;;;;;20.10;17.35;;;13.00;99.90;;;;;;5052228;28;20128;-71
2022/05/02 07:09:46;;;;;;;21.85;18.15;;;13.10;99.90;;;;;;5051070;28;20128;-71
2022/05/02 07:12:26;;;;;;;25.75;19.08;;;13.20;99.90;;;;;;5051444;28;20108;-71
2022/05/02 07:15:10;;;;;;;23.83;18.63;;;13.30;99.90;;;;;;5052258;28;20033;-71
2022/05/02 07:18:05;;;;;;;22.58;18.65;;;13.40;99.90;;;;;;5041667;28;20409;-71
2022/05/02 07:20:47;;;;;;;26.42;18.17;;;13.50;99.90;;;;;;5048263;28;20095;-71
2022/05/02 07:23:34;;;;;;;23.50;18.33;;;13.60;99.90;;;;;;5051529;28;20021;-70
2022/05/02 07:26:07;;;;;;;28.25;18.73;;;13.70;99.90;;;;;;5046639;28;20526;-70
2022/05/02 07:28:47;;;;;;;23.35;17.92;;;13.70;99.90;;;;;;5052887;28;20071;-71
2022/05/02 07:31:23;;;;;;;22.52;17.40;;;13.80;99.90;;;;;;5052325;28;20056;-71
2022/05/02 07:33:50;;;;;;;22.83;19.15;;;13.90;99.90;;;;;;5052942;28;20535;-71
2022/05/02 07:36:18;;;;;;;24.27;19.10;;;14.00;99.90;;;;;;5052366;28;20370;-70
2022/05/02 07:38:54;;;;;;;28.98;18.38;;;14.00;99.90;;;;;;5052831;28;20029;-71
2022/05/02 07:41:25;;;;;;;28.98;20.02;;;14.10;99.90;;;;;;5052273;28;20040;-71
2022/05/02 07:43:57;;;;;;;24.08;18.23;;;14.20;99.90;;;;;;5052805;28;20477;-71
2022/05/02 07:46:29;;;;;;;20.85;17.50;;;14.30;99.90;;;;;;5051317;28;20462;-70
2022/05/02 07:48:57;;;;;;;23.33;19.42;;;14.40;99.90;;;;;;5052523;28;20469;-70
2022/05/02 07:51:24;;;;;;;21.73;17.70;;;14.50;99.90;;;;;;5051207;28;20104;-70
2022/05/02 07:53:51;;;;;;;24.15;18.38;;;14.60;99.90;;;;;;5052629;28;20025;-72
2022/05/02 07:56:21;;;;;;;18.63;15.68;;;14.70;99.90;;;;;;5051611;28;20104;-70
2022/05/02 07:58:50;;;;;;;20.43;16.43;;;14.70;99.90;;;;;;5052229;28;20094;-70
2022/05/02 08:01:20;;;;;;;17.20;14.82;;;14.80;99.90;;;;;;5051281;28;20025;-70
2022/05/02 08:03:46;;;;;;;21.90;18.13;;;14.90;99.90;;;;;;5052223;28;20028;-70
2022/05/02 08:06:20;;;;;;;22.83;17.83;;;15.10;99.90;;;;;;5049893;28;20533;-71
2022/05/02 08:09:04;;;;;;;22.40;18.80;;;15.20;99.90;;;;;;5063592;28;20044;-70
2022/05/02 08:11:39;;;;;;;23.27;17.95;;;15.30;99.90;;;;;;5050384;28;20069;-70
2022/05/02 08:14:16;;;;;;;22.42;17.95;;;15.30;99.90;;;;;;5051712;28;20028;-70
2022/05/02 08:17:09;;;;;;;19.85;17.23;;;15.30;99.90;;;;;;5032314;28;20036;-71
2022/05/02 08:19:59;;;;;;;25.02;18.63;;;15.30;99.90;;;;;;5032970;28;20033;-71
2022/05/02 08:28:45;;;;;;;26.80;18.60;;;15.60;99.90;;;;;;5051736;28;20044;-71
2022/05/02 08:31:27;;;;;;;26.50;19.15;;;15.70;99.90;;;;;;5050884;28;20025;-71
2022/05/02 08:34:11;;;;;;;25.40;19.35;;;15.90;99.90;;;;;;5051972;28;20049;-70
2022/05/02 08:36:49;;;;;;;24.15;18.50;;;15.90;99.90;;;;;;5051645;28;20074;-71
2022/05/02 08:39:24;;;;;;;22.88;17.52;;;16.10;99.90;;;;;;5050800;28;20037;-69
2022/05/02 08:41:56;;;;;;;19.75;17.42;;;16.10;99.90;;;;;;5040775;28;20051;-70
2022/05/02 08:44:49;;;;;;;20.20;16.77;;;16.20;99.90;;;;;;5050947;28;20471;-69
2022/05/02 08:47:27;;;;;;;25.80;18.30;;;16.40;99.90;;;;;;5050244;28;20105;-70
2022/05/02 08:50:34;;;;;;;20.65;15.20;;;16.70;99.90;;;;;;5051194;28;20033;-70
2022/05/02 08:53:09;;;;;;;19.15;14.95;;;16.70;99.90;;;;;;5048981;28;20040;-71
2022/05/02 08:56:02;;;;;;;21.45;16.58;;;16.70;99.90;;;;;;5051845;28;20021;-70
2022/05/02 08:59:22;;;;;;;19.30;15.77;;;16.80;99.90;;;;;;5050885;28;20115;-71
2022/05/02 09:01:51;;;;;;;21.85;16.15;;;16.80;99.30;;;;;;5017246;28;20044;-71
2022/05/02 09:04:38;;;;;;;21.08;16.52;;;16.80;99.90;;;;;;5025792;28;20531;-70
2022/05/02 09:07:45;;;;;;;20.95;14.73;;;16.90;99.90;;;;;;5025600;28;20463;-70
2022/05/02 09:10:20;;;;;;;21.60;16.23;;;17.00;99.30;;;;;;5040694;28;20107;-70
2022/05/02 09:13:15;;;;;;;17.95;14.85;;;17.10;99.20;;;;;;5051097;28;20386;-70
2022/05/02 09:15:59;;;;;;;20.52;16.50;;;17.20;99.10;;;;;;5050759;28;20025;-70
2022/05/02 09:18:42;;;;;;;19.83;15.90;;;17.50;98.10;;;;;;5050135;28;20036;-70
2022/05/02 09:21:35;;;;;;;17.45;15.45;;;17.60;97.40;;;;;;5054612;28;20106;-70
2022/05/02 09:24:23;;;;;;;17.73;15.02;;;17.80;96.10;;;;;;5055444;28;20098;-70
2022/05/02 09:27:26;;;;;;;16.83;15.10;;;17.50;95.70;;;;;;5047658;28;20079;-71
2022/05/02 09:30:17;;;;;;;18.65;14.98;;;17.40;96.50;;;;;;5054446;28;20037;-71
2022/05/02 09:33:05;;;;;;;16.08;11.48;;;17.30;96.00;;;;;;5044576;28;20029;-70
2022/05/02 09:35:52;;;;;;;16.45;13.05;;;17.40;94.90;;;;;;5044860;28;20414;-70
2022/05/02 09:38:25;;;;;;;13.18;11.80;;;17.60;94.10;;;;;;5054512;28;20488;-70
2022/05/02 09:40:59;;;;;;;11.05;9.82;;;17.70;93.90;;;;;;5054817;28;20076;-70
2022/05/02 09:49:47;;;;;;;12.13;10.65;;;17.70;93.00;;;;;;5053679;28;20127;-71
2022/05/02 09:52:25;;;;;;;12.63;11.18;;;17.90;92.80;;;;;;5046436;28;20119;-71
2022/05/02 09:58:16;;;;;;;15.20;10.70;;;18.40;91.30;;;;;;5034408;28;20556;-69
2022/05/02 10:01:10;;;;;;;17.42;11.68;;;18.50;91.40;;;;;;5051061;28;20063;-69
2022/05/02 10:03:56;;;;;;;14.30;11.95;;;18.40;90.90;;;;;;5054067;28;20024;-70
2022/05/02 10:06:49;;;;;;;10.15;8.98;;;18.60;90.50;;;;;;5053217;28;20112;-70
2022/05/02 10:09:24;;;;;;;12.35;10.82;;;18.90;91.10;;;;;;5049975;28;20045;-71
2022/05/02 10:12:12;;;;;;;12.38;11.07;;;19.10;86.40;;;;;;5054480;28;20517;-71
2022/05/02 10:14:45;;;;;;;12.23;9.98;;;19.00;88.10;;;;;;5053864;28;20478;-72
2022/05/02 10:17:14;;;;;;;10.98;9.88;;;19.00;88.50;;;;;;5053775;28;20063;-71
2022/05/02 10:19:59;;;;;;;12.33;10.17;;;19.00;85.50;;;;;;5053650;28;20029;-71
2022/05/02 10:23:06;;;;;;;11.65;10.05;;;19.10;85.60;;;;;;5053601;28;20522;-71
2022/05/02 10:25:41;;;;;;;10.98;9.32;;;19.30;82.60;;;;;;5031040;28;20096;-70
2022/05/02 10:28:44;;;;;;;11.30;9.05;;;19.50;82.70;;;;;;5031607;28;20116;-70
2022/05/02 10:31:27;;;;;;;10.88;8.38;;;19.80;82.10;;;;;;5044538;28;20044;-70
2022/05/02 10:33:54;;;;;;;10.10;8.10;;;19.80;76.80;;;;;;5054221;28;20116;-71
2022/05/02 10:36:23;;;;;;;11.85;9.35;;;19.70;77.70;;;;;;5053319;28;20390;-71
2022/05/02 10:39:01;;;;;;;9.52;8.05;;;19.50;79.40;;;;;;5053833;28;20533;-70
2022/05/02 10:41:30;;;;;;;8.32;7.53;;;19.20;80.40;;;;;;5053125;28;20386;-70
2022/05/02 10:44:05;;;;;;;8.57;6.50;;;19.20;76.90;;;;;;5053736;28;20029;-70
2022/05/02 10:46:32;;;;;;;7.00;6.30;;;19.40;75.90;;;;;;5051893;28;20048;-71
2022/05/02 10:49:11;;;;;;;6.22;5.63;;;19.40;75.30;;;;;;5053544;28;20441;-69
2022/05/02 10:51:59;;;;;;;7.45;6.05;;;19.40;75.30;;;;;;5053217;28;20028;-69
2022/05/02 10:54:53;;;;;;;8.18;7.05;;;19.70;72.60;;;;;;5033113;28;20033;-70
2022/05/02 10:57:39;;;;;;;7.20;5.32;;;20.10;71.70;;;;;;5032831;28;20033;-71
2022/05/02 11:00:09;;;;;;;7.20;6.28;;;20.40;70.50;;;;;;5048519;28;20025;-70
2022/05/02 11:03:16;;;;;;;5.65;4.90;;;20.60;68.30;;;;;;5051339;28;20021;-71
2022/05/02 11:05:53;;;;;;;10.40;6.35;;;20.70;69.00;;;;;;5031301;28;20172;-71
2022/05/02 11:08:29;;;;;;;6.68;6.07;;;21.00;66.80;;;;;;5050639;28;20053;-71
2022/05/02 11:11:04;;;;;;;6.45;5.72;;;21.10;65.30;;;;;;5053470;28;20052;-70
2022/05/02 11:13:40;;;;;;;5.70;5.15;;;21.20;65.00;;;;;;5052286;28;20025;-71
2022/05/02 11:16:17;;;;;;;5.18;4.60;;;21.30;65.20;;;;;;5052614;28;20033;-70
2022/05/02 11:22:00;;;;;;;6.78;5.82;;;21.90;64.80;;;;;;5052289;28;20120;-71
2022/05/02 11:25:07;;;;;;;5.60;5.10;;;22.00;62.40;;;;;;5052297;28;20075;-71
2022/05/02 11:27:38;;;;;;;7.28;6.10;;;22.00;63.20;;;;;;5034091;28;20045;-71
2022/05/02 11:30:06;;;;;;;7.43;6.72;;;22.10;63.70;;;;;;5053046;28;20025;-70
2022/05/02 11:33:09;;;;;;;7.75;6.47;;;22.20;62.80;;;;;;5052041;28;20052;-71
2022/05/02 11:35:35;;;;;;;7.18;6.55;;;22.10;63.70;;;;;;5051938;28;20413;-71
2022/05/02 11:38:22;;;;;;;8.10;6.50;;;21.20;63.90;;;;;;5050964;28;20029;-71
2022/05/02 11:40:53;;;;;;;7.75;6.55;;;20.80;65.90;;;;;;5034295;28;20060;-70
2022/05/02 11:43:22;;;;;;;6.53;5.82;;;20.20;66.90;;;;;;5048477;28;20033;-70
2022/05/02 11:45:56;;;;;;;6.45;5.68;;;20.00;67.20;;;;;;5052334;28;20381;-70
2022/05/02 11:48:40;;;;;;;8.88;6.35;;;19.90;66.80;;;;;;5050367;28;20037;-70
2022/05/02 11:51:17;;;;;;;8.85;6.22;;;19.70;67.30;;;;;;5050464;28;20056;-71
2022/05/02 11:53:48;;;;;;;10.02;6.10;;;19.80;69.30;;;;;;5052883;28;20025;-68
2022/05/02 11:56:16;;;;;;;7.97;6.43;;;19.80;68.70;;;;;;5053704;28;20025;-70
2022/05/02 11:58:48;;;;;;;11.10;5.82;;;19.80;69.20;;;;;;5051652;28;20036;-71
2022/05/02 12:01:24;;;;;;;9.13;6.47;;;20.00;68.40;;;;;;5051756;28;20033;-71
2022/05/02 12:03:59;;;;;;;8.88;6.32;;;20.20;68.40;;;;;;5052466;28;20102;-70
2022/05/02 12:06:36;;;;;;;7.63;5.15;;;20.20;68.00;;;;;;5051301;28;20029;-71
2022/05/02 12:09:03;;;;;;;5.32;4.80;;;20.10;68.10;;;;;;5049501;28;20064;-70
2022/05/02 12:11:29;;;;;;;12.13;5.45;;;20.10;68.50;;;;;;5049566;28;20083;-70
2022/05/02 12:13:56;;;;;;;5.43;4.57;;;20.10;68.20;;;;;;5050806;28;20040;-71
2022/05/02 12:16:21;;;;;;;4.93;4.53;;;20.30;67.50;;;;;;5051095;28;20032;-71
2022/05/02 12:18:51;;;;;;;9.90;4.50;;;20.50;66.70;;;;;;5051876;28;20037;-71
2022/05/02 12:21:35;;;;;;;4.90;4.40;;;20.70;65.60;;;;;;5051800;28;20421;-70
2022/05/02 12:24:03;;;;;;;4.60;3.90;;;20.80;65.20;;;;;;5052068;28;20029;-71
2022/05/02 12:26:32;;;;;;;5.28;4.13;;;21.00;63.90;;;;;;5050937;28;20470;-71
2022/05/02 12:29:04;;;;;;;5.30;3.80;;;21.40;62.90;;;;;;5051619;28;20036;-69
2022/05/02 12:31:35;;;;;;;4.57;4.00;;;21.80;64.00;;;;;;5050753;28;20032;-69
2022/05/02 12:34:07;;;;;;;5.97;5.13;;;21.90;61.80;;;;;;5052091;28;20343;-70
2022/05/02 12:36:45;;;;;;;4.95;4.45;;;21.80;63.40;;;;;;5050373;28;20017;-70
2022/05/02 12:39:16;;;;;;;5.80;5.20;;;21.80;63.10;;;;;;5051640;28;20090;-70
2022/05/02 12:41:50;;;;;;;5.55;4.82;;;21.80;63.40;;;;;;5046772;28;20083;-70
2022/05/02 12:44:17;;;;;;;8.27;5.40;;;21.40;63.20;;;;;;5031734;28;20466;-69
2022/05/02 12:46:52;;;;;;;6.13;4.82;;;21.00;64.40;;;;;;5048111;28;20017;-71
2022/05/02 12:49:24;;;;;;;5.10;4.60;;;20.70;64.90;;;;;;5051653;28;20091;-71
2022/05/02 12:51:55;;;;;;;13.30;5.50;;;20.60;65.00;;;;;;5051159;28;20496;-71
2022/05/02 12:54:22;;;;;;;6.47;4.20;;;20.70;65.10;;;;;;5050542;28;20059;-71
2022/05/02 13:02:30;;;;;;;4.80;4.40;;;20.90;64.50;;;;;;5050994;28;20036;-70
2022/05/02 13:04:57;;;;;;;4.20;3.80;;;21.00;65.40;;;;;;5051243;28;20025;-70
2022/05/02 13:07:26;;;;;;;4.68;3.85;;;21.00;64.40;;;;;;5048870;28;20037;-70
2022/05/02 13:09:53;;;;;;;3.92;3.50;;;21.00;62.90;;;;;;5051107;28;20061;-70
2022/05/02 13:12:22;;;;;;;3.47;3.17;;;20.90;62.40;;;;;;5044894;28;20036;-70
2022/05/02 13:14:50;;;;;;;4.07;3.63;;;20.80;62.50;;;;;;5031370;28;20542;-70
2022/05/02 13:17:20;;;;;;;4.50;3.10;;;20.80;63.10;;;;;;5049295;28;20427;-70
2022/05/02 13:19:48;;;;;;;4.82;3.97;;;20.80;64.30;;;;;;5050787;28;20525;-71
2022/05/02 13:22:14;;;;;;;4.93;4.00;;;20.90;64.10;;;;;;5049427;28;20029;-70
2022/05/02 13:24:52;;;;;;;3.60;3.30;;;21.00;64.20;;;;;;5049667;28;20025;-71
2022/05/02 13:27:21;;;;;;;3.67;3.38;;;21.40;63.70;;;;;;5044835;28;20455;-71
2022/05/02 13:30:03;;;;;;;3.45;3.15;;;21.70;63.90;;;;;;5049840;28;20102;-71
2022/05/02 13:32:36;;;;;;;4.72;3.28;;;21.80;63.10;;;;;;5048649;28;20462;-71
2022/05/02 13:35:10;;;;;;;3.00;2.80;;;22.00;63.80;;;;;;5049384;28;20108;-71
2022/05/02 13:37:58;;;;;;;3.60;3.30;;;22.20;60.70;;;;;;5050523;28;20035;-71
2022/05/02 13:40:36;;;;;;;4.45;3.40;;;22.20;60.10;;;;;;5046867;28;20046;-71